createdAt,value
2018-03-18T00:01:06.157Z,12.80
2018-03-18T00:03:33.610Z,13.20
2018-03-18T00:06:01.839Z,11.03
2018-03-18T00:08:29.314Z,12.50
2018-03-18T00:10:56.757Z,14.83
2018-03-18T00:13:24.208Z,11.97
2018-03-18T00:15:51.678Z,13.10
2018-03-18T00:18:19.145Z,13.77
2018-03-18T00:20:46.618Z,13.03
2018-03-18T00:23:14.836Z,12.90
2018-03-18T00:25:42.289Z,12.53
2018-03-18T00:28:09.758Z,13.37
2018-03-18T00:30:37.215Z,13.23
2018-03-18T00:33:04.664Z,12.37
2018-03-18T00:35:32.116Z,12.17
2018-03-18T00:37:59.576Z,13.87
2018-03-18T00:40:27.021Z,13.30
2018-03-18T00:42:54.476Z,13.27
2018-03-18T00:45:21.928Z,12.60
2018-03-18T00:47:49.410Z,10.67
2018-03-18T00:50:16.873Z,12.97
2018-03-18T00:52:44.326Z,9.10
2018-03-18T00:55:11.784Z,13.20
2018-03-18T00:57:39.239Z,11.53
2018-03-18T01:00:06.718Z,9.87
2018-03-18T01:02:34.175Z,9.30
2018-03-18T01:05:01.633Z,12.27
2018-03-18T01:07:29.072Z,11.57
2018-03-18T01:09:56.531Z,13.30
2018-03-18T01:12:24.010Z,12.57
2018-03-18T01:14:51.448Z,12.27
2018-03-18T01:17:18.913Z,10.20
2018-03-18T01:19:46.367Z,9.27
2018-03-18T01:22:13.819Z,13.93
2018-03-18T01:24:41.279Z,11.67
2018-03-18T01:27:08.734Z,12.73
2018-03-18T01:29:36.237Z,11.67
2018-03-18T01:32:03.677Z,12.77
2018-03-18T01:34:31.155Z,11.57
2018-03-18T01:36:58.605Z,12.20
2018-03-18T01:39:26.096Z,12.53
2018-03-18T01:41:53.559Z,11.53
2018-03-18T01:44:21.017Z,11.83
2018-03-18T01:46:48.466Z,11.07
2018-03-18T01:49:15.920Z,13.80
2018-03-18T01:51:43.376Z,12.90
2018-03-18T01:54:10.846Z,14.20
2018-03-18T01:56:38.297Z,14.20
2018-03-18T01:59:05.771Z,13.10
2018-03-18T02:01:33.215Z,14.40
2018-03-18T02:04:00.673Z,10.20
2018-03-18T02:06:28.145Z,11.57
2018-03-18T02:08:59.386Z,15.40
2018-03-18T02:11:26.832Z,11.30
2018-03-18T02:13:54.307Z,13.33
2018-03-18T02:16:21.764Z,12.13
2018-03-18T02:18:49.226Z,12.80
2018-03-18T02:21:16.690Z,12.93
2018-03-18T02:23:44.145Z,13.87
2018-03-18T02:26:11.595Z,14.43
2018-03-18T02:28:39.059Z,14.40
2018-03-18T02:31:06.509Z,14.07
2018-03-18T02:33:33.971Z,13.47
2018-03-18T02:36:01.430Z,12.10
2018-03-18T02:38:28.899Z,11.77
2018-03-18T02:40:56.370Z,12.80
2018-03-18T02:43:23.827Z,11.90
2018-03-18T02:45:51.284Z,10.07
2018-03-18T02:48:18.758Z,14.93
2018-03-18T02:50:46.202Z,13.57
2018-03-18T02:53:13.682Z,13.40
2018-03-18T02:55:41.134Z,13.30
2018-03-18T02:58:08.597Z,11.57
2018-03-18T03:00:36.048Z,13.53
2018-03-18T03:03:03.527Z,14.93
2018-03-18T03:05:31.746Z,13.90
2018-03-18T03:07:59.221Z,13.10
2018-03-18T03:10:26.736Z,10.63
2018-03-18T03:12:54.184Z,13.90
2018-03-18T03:15:21.652Z,14.43
2018-03-18T03:17:49.103Z,15.70
2018-03-18T03:20:16.564Z,12.40
2018-03-18T03:22:44.022Z,14.17
2018-03-18T03:25:11.494Z,14.47
2018-03-18T03:27:38.951Z,15.90
2018-03-18T03:30:06.426Z,6.43
2018-03-18T03:32:33.882Z,15.07
2018-03-18T03:35:01.345Z,12.97
2018-03-18T03:37:28.801Z,11.37
2018-03-18T03:39:56.271Z,13.90
2018-03-18T03:42:23.724Z,15.40
2018-03-18T03:44:51.190Z,14.40
2018-03-18T03:47:19.621Z,14.77
2018-03-18T03:49:47.086Z,12.60
2018-03-18T03:52:14.542Z,13.93
2018-03-18T03:54:41.993Z,13.37
2018-03-18T03:57:09.462Z,10.13
2018-03-18T03:59:36.921Z,15.57
2018-03-18T04:02:04.396Z,12.60
2018-03-18T04:04:31.904Z,11.77
2018-03-18T04:06:59.310Z,11.70
2018-03-18T04:09:26.762Z,12.50
2018-03-18T04:11:54.246Z,14.63
2018-03-18T04:14:22.473Z,14.33
2018-03-18T04:16:49.878Z,8.73
2018-03-18T04:19:17.328Z,13.60
2018-03-18T04:21:44.796Z,13.53
2018-03-18T04:24:12.307Z,6.63
2018-03-18T04:26:39.752Z,11.77
2018-03-18T04:29:07.215Z,11.60
2018-03-18T04:31:34.683Z,10.80
2018-03-18T04:34:02.152Z,11.17
2018-03-18T04:36:29.606Z,10.80
2018-03-18T04:38:57.071Z,9.97
2018-03-18T04:41:26.551Z,12.67
2018-03-18T04:43:54.014Z,12.63
2018-03-18T04:46:21.458Z,12.97
2018-03-18T04:48:48.930Z,12.07
2018-03-18T04:51:16.401Z,12.40
2018-03-18T04:53:43.862Z,13.27
2018-03-18T04:56:11.326Z,10.93
2018-03-18T04:58:38.780Z,10.47
2018-03-18T05:01:06.298Z,8.93
2018-03-18T05:03:33.718Z,10.70
2018-03-18T05:06:01.173Z,9.90
2018-03-18T05:08:28.633Z,10.93
2018-03-18T05:10:56.081Z,12.50
2018-03-18T05:13:23.541Z,10.17
2018-03-18T05:15:51.005Z,12.13
2018-03-18T05:18:18.461Z,9.50
2018-03-18T05:20:45.929Z,13.00
2018-03-18T05:23:14.340Z,11.03
2018-03-18T05:25:41.807Z,10.90
2018-03-18T05:28:09.264Z,10.57
2018-03-18T05:30:36.702Z,8.97
2018-03-18T05:33:04.925Z,10.20
2018-03-18T05:35:32.394Z,11.60
2018-03-18T05:37:59.852Z,9.73
2018-03-18T05:40:27.316Z,11.40
2018-03-18T05:42:54.769Z,7.93
2018-03-18T05:45:22.243Z,10.00
2018-03-18T05:47:49.703Z,10.37
2018-03-18T05:50:17.166Z,11.00
2018-03-18T05:52:44.609Z,11.47
2018-03-18T05:55:12.061Z,11.70
2018-03-18T05:57:39.521Z,11.47
2018-03-18T06:00:06.982Z,10.70
2018-03-18T06:02:34.433Z,9.70
2018-03-18T06:05:01.895Z,10.30
2018-03-18T06:07:29.344Z,7.40
2018-03-18T06:09:56.804Z,8.23
2018-03-18T06:12:24.262Z,10.47
2018-03-18T06:14:51.726Z,8.07
2018-03-18T06:17:19.177Z,11.57
2018-03-18T06:19:46.636Z,9.10
2018-03-18T06:22:14.077Z,9.30
2018-03-18T06:24:41.546Z,10.43
2018-03-18T06:27:09.011Z,10.40
2018-03-18T06:29:36.466Z,13.07
2018-03-18T06:32:03.919Z,10.17
2018-03-18T06:34:31.384Z,11.43
2018-03-18T06:36:58.838Z,7.70
2018-03-18T06:39:26.301Z,10.67
2018-03-18T06:41:53.754Z,11.03
2018-03-18T06:44:21.207Z,10.20
2018-03-18T06:46:48.667Z,10.30
2018-03-18T06:49:16.122Z,10.27
2018-03-18T06:51:43.583Z,11.40
2018-03-18T06:54:11.046Z,9.57
2018-03-18T06:56:38.484Z,10.10
2018-03-18T06:59:05.943Z,10.80
2018-03-18T07:01:33.415Z,10.70
2018-03-18T07:04:00.851Z,9.97
2018-03-18T07:06:28.296Z,8.90
2018-03-18T07:08:55.771Z,12.50
2018-03-18T07:11:24.319Z,11.20
2018-03-18T07:13:51.893Z,10.53
2018-03-18T07:16:19.442Z,10.47
2018-03-18T07:18:46.910Z,12.50
2018-03-18T07:21:14.364Z,8.47
2018-03-18T07:23:41.904Z,11.30
2018-03-18T07:26:09.385Z,10.53
2018-03-18T07:28:36.851Z,8.40
2018-03-18T07:31:04.308Z,8.40
2018-03-18T07:33:31.769Z,8.47
2018-03-18T07:35:59.230Z,8.80
2018-03-18T07:38:26.695Z,9.97
2018-03-18T07:40:54.920Z,9.87
2018-03-18T07:43:22.383Z,9.20
2018-03-18T07:45:49.846Z,7.63
2018-03-18T07:48:17.323Z,7.97
2018-03-18T07:50:44.773Z,9.67
2018-03-18T07:53:12.225Z,8.37
2018-03-18T07:55:39.683Z,6.70
2018-03-18T07:58:07.142Z,9.67
2018-03-18T08:00:34.603Z,6.93
2018-03-18T08:03:02.150Z,9.90
2018-03-18T08:05:29.618Z,8.20
2018-03-18T08:07:57.832Z,7.23
2018-03-18T08:10:25.281Z,7.93
2018-03-18T08:12:52.730Z,8.47
2018-03-18T08:15:20.184Z,8.00
2018-03-18T08:17:47.706Z,10.50
2018-03-18T08:20:15.169Z,7.77
2018-03-18T08:22:42.645Z,10.30
2018-03-18T08:25:10.185Z,8.07
2018-03-18T08:27:38.649Z,10.37
2018-03-18T08:30:06.975Z,9.47
2018-03-18T08:32:34.426Z,9.70
2018-03-18T08:35:01.888Z,8.40
2018-03-18T08:37:29.419Z,9.43
2018-03-18T08:39:56.894Z,10.53
2018-03-18T08:42:29.244Z,8.70
2018-03-18T08:44:56.694Z,9.47
2018-03-18T08:47:26.190Z,7.33
2018-03-18T08:49:54.420Z,7.63
2018-03-18T08:52:22.793Z,8.20
2018-03-18T08:54:50.211Z,7.47
2018-03-18T08:57:18.494Z,7.13
2018-03-18T08:59:45.951Z,7.90
2018-03-18T09:02:14.451Z,8.40
2018-03-18T09:04:41.894Z,7.73
2018-03-18T09:07:09.366Z,7.63
2018-03-18T09:09:36.865Z,6.53
2018-03-18T09:12:04.330Z,6.87
2018-03-18T09:14:31.778Z,7.60
2018-03-18T09:16:59.234Z,5.37
2018-03-18T09:19:26.692Z,7.53
2018-03-18T09:21:54.222Z,5.80
2018-03-18T09:24:21.704Z,7.90
2018-03-18T09:26:49.243Z,7.87
2018-03-18T09:29:16.691Z,6.97
2018-03-18T09:31:44.171Z,7.23
2018-03-18T09:34:12.507Z,7.80
2018-03-18T09:36:39.994Z,7.70
2018-03-18T09:39:07.452Z,9.07
2018-03-18T09:41:34.975Z,5.50
2018-03-18T09:44:02.425Z,6.70
2018-03-18T09:46:30.634Z,8.90
2018-03-18T09:48:58.111Z,7.50
2018-03-18T09:51:26.382Z,8.17
2018-03-18T09:53:53.897Z,8.03
2018-03-18T09:56:21.379Z,8.90
2018-03-18T09:58:48.838Z,7.97
2018-03-18T10:01:16.288Z,6.70
2018-03-18T10:03:44.168Z,9.10
2018-03-18T10:06:11.626Z,8.17
2018-03-18T10:08:39.086Z,6.37
2018-03-18T10:11:06.540Z,8.00
2018-03-18T10:13:34.003Z,5.07
2018-03-18T10:16:01.463Z,8.23
2018-03-18T10:18:28.995Z,8.37
2018-03-18T10:20:56.441Z,8.60
2018-03-18T10:23:24.728Z,7.60
2018-03-18T10:25:52.211Z,7.40
2018-03-18T10:28:19.713Z,7.77
2018-03-18T10:30:47.166Z,10.63
2018-03-18T10:33:14.618Z,8.20
2018-03-18T10:35:42.122Z,9.40
2018-03-18T10:38:09.584Z,8.43
2018-03-18T10:40:37.139Z,7.50
2018-03-18T10:43:04.744Z,7.90
2018-03-18T10:45:32.234Z,7.83
2018-03-18T10:48:00.458Z,9.10
2018-03-18T10:50:27.921Z,6.60
2018-03-18T10:52:55.429Z,7.47
2018-03-18T10:55:22.931Z,8.37
2018-03-18T10:57:51.144Z,6.77
2018-03-18T11:00:20.499Z,8.90
2018-03-18T11:02:50.473Z,8.83
2018-03-18T11:05:17.986Z,8.40
2018-03-18T11:07:45.461Z,5.90
2018-03-18T11:10:12.890Z,9.17
2018-03-18T11:12:40.349Z,8.00
2018-03-18T11:15:07.855Z,6.13
2018-03-18T11:17:35.259Z,6.10
2018-03-18T11:20:02.693Z,7.30
2018-03-18T11:22:30.150Z,7.87
2018-03-18T11:24:57.598Z,8.63
2018-03-18T11:27:25.041Z,7.03
2018-03-18T11:29:53.281Z,8.50
2018-03-18T11:32:20.716Z,5.80
2018-03-18T11:34:48.259Z,8.00
2018-03-18T11:37:15.745Z,7.10
2018-03-18T11:39:43.211Z,6.80
2018-03-18T11:42:11.481Z,6.90
2018-03-18T11:44:38.920Z,6.17
2018-03-18T11:47:06.438Z,6.90
2018-03-18T11:49:33.892Z,6.60
2018-03-18T11:52:01.374Z,6.00
2018-03-18T11:54:30.138Z,6.20
2018-03-18T11:56:57.793Z,4.70
2018-03-18T11:59:25.581Z,6.90
2018-03-18T12:01:53.400Z,6.40
2018-03-18T12:04:20.915Z,4.97
2018-03-18T12:06:48.349Z,6.43
2018-03-18T12:09:16.570Z,6.33
2018-03-18T12:11:44.031Z,6.47
2018-03-18T12:14:11.487Z,7.13
2018-03-18T12:16:38.936Z,6.17
2018-03-18T12:19:06.372Z,7.47
2018-03-18T12:21:33.834Z,6.67
2018-03-18T12:24:01.337Z,5.70
2018-03-18T12:26:28.897Z,6.70
2018-03-18T12:28:56.343Z,6.27
2018-03-18T12:31:23.777Z,6.37
2018-03-18T12:33:51.323Z,6.27
2018-03-18T12:36:18.706Z,4.97
2018-03-18T12:38:46.198Z,6.77
2018-03-18T12:41:14.421Z,5.90
2018-03-18T12:43:41.947Z,5.37
2018-03-18T12:46:09.513Z,6.27
2018-03-18T12:48:37.749Z,6.00
2018-03-18T12:51:05.214Z,7.27
2018-03-18T12:53:32.661Z,4.97
2018-03-18T12:56:00.128Z,6.20
2018-03-18T12:58:27.575Z,5.30
2018-03-18T13:00:55.033Z,5.80
2018-03-18T13:03:22.513Z,7.80
2018-03-18T13:05:49.972Z,6.63
2018-03-18T13:08:17.412Z,6.17
2018-03-18T13:10:44.876Z,6.03
2018-03-18T13:13:12.321Z,5.83
2018-03-18T13:15:39.864Z,5.77
2018-03-18T13:18:07.292Z,5.90
2018-03-18T13:20:34.778Z,6.17
2018-03-18T13:23:02.291Z,5.57
2018-03-18T13:25:29.730Z,5.37
2018-03-18T13:27:57.183Z,6.07
2018-03-18T13:30:24.639Z,5.10
2018-03-18T13:32:52.089Z,5.00
2018-03-18T13:35:19.528Z,4.80
2018-03-18T13:37:47.000Z,5.57
2018-03-18T13:40:14.448Z,6.40
2018-03-18T13:42:53.366Z,7.50
2018-03-18T13:45:21.748Z,7.53
2018-03-18T13:47:49.223Z,6.43
2018-03-18T13:50:16.665Z,8.00
2018-03-18T13:52:44.132Z,6.47
2018-03-18T13:55:11.591Z,6.83
2018-03-18T13:57:39.054Z,7.00
2018-03-18T14:00:06.557Z,6.60
2018-03-18T14:02:34.840Z,6.70
2018-03-18T14:05:02.316Z,6.47
2018-03-18T14:07:29.762Z,6.63
2018-03-18T14:09:57.244Z,6.67
2018-03-18T14:12:24.781Z,6.73
2018-03-18T14:14:52.237Z,6.83
2018-03-18T14:17:19.700Z,6.40
2018-03-18T14:19:47.194Z,6.43
2018-03-18T14:22:14.736Z,6.47
2018-03-18T14:24:42.194Z,7.30
2018-03-18T14:27:09.656Z,5.80
2018-03-18T14:29:37.115Z,6.33
2018-03-18T14:32:04.553Z,6.53
2018-03-18T14:34:32.025Z,5.93
2018-03-18T14:36:59.474Z,5.43
2018-03-18T14:39:26.940Z,5.60
2018-03-18T14:41:54.663Z,5.33
2018-03-18T14:44:22.879Z,5.40
2018-03-18T14:46:50.398Z,5.37
2018-03-18T14:49:18.615Z,4.77
2018-03-18T14:51:46.832Z,5.30
2018-03-18T14:54:14.307Z,4.20
2018-03-18T14:56:42.525Z,4.50
2018-03-18T14:59:09.975Z,5.37
2018-03-18T15:01:37.417Z,5.60
2018-03-18T15:04:04.868Z,5.13
2018-03-18T15:06:32.326Z,5.00
2018-03-18T15:08:59.808Z,5.10
2018-03-18T15:11:28.246Z,7.73
2018-03-18T15:13:58.483Z,5.60
2018-03-18T15:16:25.925Z,5.63
2018-03-18T15:18:54.218Z,6.00
2018-03-18T15:21:21.655Z,4.17
2018-03-18T15:23:49.874Z,7.67
2018-03-18T15:26:17.331Z,5.13
2018-03-18T15:28:44.775Z,7.13
2018-03-18T15:31:12.239Z,5.30
2018-03-18T15:33:39.683Z,5.80
2018-03-18T15:36:07.136Z,5.40
2018-03-18T15:38:34.636Z,4.40
2018-03-18T15:41:02.184Z,5.50
2018-03-18T15:43:29.609Z,6.03
2018-03-18T15:45:57.054Z,6.83
2018-03-18T15:48:25.270Z,5.27
2018-03-18T15:50:52.734Z,4.70
2018-03-18T15:53:20.180Z,5.60
2018-03-18T15:55:47.616Z,5.40
2018-03-18T15:58:15.074Z,6.77
2018-03-18T16:00:42.529Z,6.50
2018-03-18T16:03:09.969Z,5.50
2018-03-18T16:05:38.271Z,5.40
2018-03-18T16:08:05.747Z,5.30
2018-03-18T16:10:35.251Z,7.30
2018-03-18T16:13:02.706Z,5.97
2018-03-18T16:15:30.160Z,5.53
2018-03-18T16:17:57.597Z,5.80
2018-03-18T16:20:25.066Z,5.30
2018-03-18T16:22:52.507Z,6.30
2018-03-18T16:25:19.960Z,3.90
2018-03-18T16:27:47.563Z,6.03
2018-03-18T16:30:27.038Z,6.40
2018-03-18T16:32:54.446Z,4.90
2018-03-18T16:35:21.888Z,4.87
2018-03-18T16:37:49.341Z,4.30
2018-03-18T16:40:23.311Z,5.67
2018-03-18T16:42:50.775Z,5.93
2018-03-18T16:45:18.221Z,5.90
2018-03-18T16:47:45.767Z,4.50
2018-03-18T16:50:14.021Z,4.97
2018-03-18T16:52:41.612Z,7.00
2018-03-18T16:55:09.048Z,4.40
2018-03-18T16:57:36.577Z,4.87
2018-03-18T17:00:03.950Z,5.30
2018-03-18T17:02:31.390Z,4.00
2018-03-18T17:04:58.837Z,5.77
2018-03-18T17:07:26.292Z,4.93
2018-03-18T17:09:54.494Z,5.90
2018-03-18T17:12:22.957Z,5.40
2018-03-18T17:14:50.395Z,5.00
2018-03-18T17:17:18.651Z,5.10
2018-03-18T17:19:46.099Z,4.83
2018-03-18T17:22:13.527Z,4.40
2018-03-18T17:24:40.985Z,4.10
2018-03-18T17:27:09.427Z,5.13
2018-03-18T17:29:37.646Z,5.20
2018-03-18T17:32:05.096Z,4.30
2018-03-18T17:34:32.607Z,5.57
2018-03-18T17:37:00.146Z,5.10
2018-03-18T17:39:27.535Z,4.50
2018-03-18T17:41:56.799Z,4.23
2018-03-18T17:44:36.295Z,3.70
2018-03-18T17:47:15.680Z,4.20
2018-03-18T17:49:54.926Z,4.50
2018-03-18T17:52:34.228Z,5.70
2018-03-18T17:55:13.510Z,3.63
2018-03-18T17:57:40.955Z,5.80
2018-03-18T18:00:08.410Z,4.70
2018-03-18T18:02:35.866Z,3.00
2018-03-18T18:05:03.328Z,4.03
2018-03-18T18:07:31.552Z,5.60
2018-03-18T18:09:59.019Z,5.17
2018-03-18T18:12:26.481Z,4.43
2018-03-18T18:14:53.931Z,4.47
2018-03-18T18:17:21.380Z,4.63
2018-03-18T18:19:49.381Z,5.13
2018-03-18T18:22:16.842Z,4.20
2018-03-18T18:24:44.338Z,6.40
2018-03-18T18:27:11.774Z,2.60
2018-03-18T18:29:39.216Z,4.63
2018-03-18T18:32:06.676Z,4.87
2018-03-18T18:34:34.123Z,5.30
2018-03-18T18:37:01.584Z,5.60
2018-03-18T18:39:29.047Z,5.33
2018-03-18T18:41:56.550Z,3.33
2018-03-18T18:44:23.999Z,4.53
2018-03-18T18:46:51.514Z,3.90
2018-03-18T18:49:18.970Z,3.37
2018-03-18T18:51:46.435Z,4.70
2018-03-18T18:54:13.891Z,3.40
2018-03-18T18:56:41.393Z,3.97
2018-03-18T18:59:08.845Z,4.90
2018-03-18T19:01:37.155Z,3.97
2018-03-18T19:04:04.773Z,4.47
2018-03-18T19:06:32.308Z,4.30
2018-03-18T19:08:59.757Z,4.77
2018-03-18T19:11:27.210Z,4.90
2018-03-18T19:13:54.666Z,4.33
2018-03-18T19:16:22.130Z,4.47
2018-03-18T19:18:49.587Z,4.37
2018-03-18T19:21:17.036Z,3.40
2018-03-18T19:23:44.561Z,4.93
2018-03-18T19:26:12.018Z,4.53
2018-03-18T19:28:39.491Z,3.80
2018-03-18T19:31:07.956Z,4.93
2018-03-18T19:33:35.436Z,4.57
2018-03-18T19:36:02.857Z,5.20
2018-03-18T19:38:30.321Z,3.57
2018-03-18T19:40:57.823Z,4.70
2018-03-18T19:43:25.284Z,5.27
2018-03-18T19:45:52.750Z,4.90
2018-03-18T19:48:20.192Z,3.60
2018-03-18T19:50:47.641Z,4.20
2018-03-18T19:53:15.126Z,4.10
2018-03-18T19:55:42.648Z,4.10
2018-03-18T19:58:10.104Z,4.50
2018-03-18T20:00:37.570Z,4.23
2018-03-18T20:03:05.019Z,4.17
2018-03-18T20:05:32.485Z,4.30
2018-03-18T20:07:59.938Z,10.13
2018-03-18T20:10:27.391Z,5.30
2018-03-18T20:12:54.863Z,18.70
2018-03-18T20:15:22.319Z,11.43
2018-03-18T20:17:49.770Z,8.80
2018-03-18T20:20:17.225Z,4.13
2018-03-18T20:22:44.876Z,4.43
2018-03-18T20:25:12.414Z,4.20
2018-03-18T20:27:40.062Z,3.53
2018-03-18T20:30:08.353Z,3.30
2018-03-18T20:32:35.806Z,5.13
2018-03-18T20:35:04.113Z,4.37
2018-03-18T20:37:31.544Z,3.90
2018-03-18T20:39:59.007Z,3.80
2018-03-18T20:42:26.473Z,4.40
2018-03-18T20:44:53.915Z,3.90
2018-03-18T20:47:21.496Z,5.83
2018-03-18T20:49:48.942Z,4.90
2018-03-18T20:52:16.409Z,5.33
2018-03-18T20:54:43.849Z,4.37
2018-03-18T20:57:11.393Z,4.20
2018-03-18T20:59:39.607Z,4.33
2018-03-18T21:02:07.054Z,4.33
2018-03-18T21:04:34.505Z,4.07
2018-03-18T21:07:01.974Z,4.77
2018-03-18T21:09:29.434Z,4.00
2018-03-18T21:11:57.300Z,4.50
2018-03-18T21:14:24.746Z,4.33
2018-03-18T21:16:52.461Z,4.87
2018-03-18T21:19:19.904Z,4.27
2018-03-18T21:21:47.365Z,4.33
2018-03-18T21:24:14.855Z,3.00
2018-03-18T21:26:43.088Z,4.30
2018-03-18T21:29:10.550Z,5.00
2018-03-18T21:31:38.087Z,4.57
2018-03-18T21:34:05.548Z,4.40
2018-03-18T21:36:33.012Z,4.13
2018-03-18T21:39:00.567Z,4.20
2018-03-18T21:41:28.025Z,4.70
2018-03-18T21:43:55.495Z,6.60
2018-03-18T21:46:22.956Z,4.63
2018-03-18T21:48:50.417Z,5.43
2018-03-18T21:51:17.868Z,4.40
2018-03-18T21:53:45.310Z,4.37
2018-03-18T21:56:12.825Z,4.30
2018-03-18T21:58:41.034Z,3.67
2018-03-18T22:01:08.533Z,4.33
2018-03-18T22:03:35.970Z,3.83
2018-03-18T22:06:03.440Z,4.13
2018-03-18T22:08:30.879Z,4.57
2018-03-18T22:10:58.340Z,4.60
2018-03-18T22:13:25.799Z,3.13
2018-03-18T22:15:53.251Z,4.43
2018-03-18T22:18:20.824Z,4.37
2018-03-18T22:20:48.167Z,4.00
2018-03-18T22:23:15.627Z,5.07
2018-03-18T22:25:43.078Z,3.97
2018-03-18T22:28:10.532Z,4.70
2018-03-18T22:30:37.995Z,4.60
2018-03-18T22:33:05.436Z,4.50
2018-03-18T22:35:32.903Z,4.63
2018-03-18T22:38:00.381Z,4.70
2018-03-18T22:40:27.842Z,4.50
2018-03-18T22:42:55.312Z,4.27
2018-03-18T22:45:22.756Z,5.57
2018-03-18T22:47:50.209Z,4.50
2018-03-18T22:50:17.672Z,3.90
2018-03-18T22:52:45.135Z,3.90
2018-03-18T22:55:12.593Z,4.77
2018-03-18T22:57:40.051Z,4.53
2018-03-18T23:00:07.515Z,4.33
2018-03-18T23:02:34.977Z,4.00
2018-03-18T23:05:02.470Z,4.60
2018-03-18T23:07:29.938Z,5.23
2018-03-18T23:09:57.396Z,4.47
2018-03-18T23:12:24.872Z,3.97
2018-03-18T23:14:52.325Z,4.30
2018-03-18T23:17:19.787Z,4.27
2018-03-18T23:19:47.240Z,5.20
2018-03-18T23:22:14.695Z,4.93
2018-03-18T23:24:42.154Z,6.43
2018-03-18T23:27:09.609Z,5.10
2018-03-18T23:29:37.059Z,3.40
2018-03-18T23:32:04.518Z,4.70
2018-03-18T23:34:31.971Z,5.17
2018-03-18T23:36:59.454Z,4.70
2018-03-18T23:39:26.909Z,5.67
2018-03-18T23:41:54.366Z,4.73
2018-03-18T23:44:21.816Z,4.33
2018-03-18T23:46:49.275Z,4.70
2018-03-18T23:49:16.730Z,5.80
2018-03-18T23:51:44.201Z,3.00
2018-03-18T23:54:11.655Z,4.40
2018-03-18T23:56:39.115Z,5.43
2018-03-18T23:59:06.576Z,4.83
